Time;durP1;ratioP1;P1;durP2;ratioP2;P2;SDS_P1;SDS_P2;PMS_P1;PMS_P2;Temp;Humidity;BMP_temperature;BMP_pressure;BME280_temperature;BME280_humidity;BME280_pressure;Samples;Min_cycle;Max_cycle;Signal;HPM_P1;HPM_P2
2021/05/25 00:00:49;;;;;;;1.83;0.67;;;;;;;;;;5089020;28;20669;-66
2021/05/25 00:03:15;;;;;;;0.73;0.73;;;;;;;;;;5082680;28;20229;-64
2021/05/25 00:05:41;;;;;;;0.63;0.57;;;;;;;;;;5072100;28;20222;-66
2021/05/25 00:08:09;;;;;;;1.70;0.70;;;;;;;;;;5070457;28;20261;-64
2021/05/25 00:10:35;;;;;;;0.70;0.70;;;;;;;;;;5090083;28;20180;-64
2021/05/25 00:13:01;;;;;;;1.10;1.00;;;;;;;;;;5070952;28;20265;-64
2021/05/25 00:15:28;;;;;;;0.70;0.70;;;;;;;;;;5089871;28;20264;-63
2021/05/25 00:17:54;;;;;;;1.30;0.90;;;;;;;;;;5089870;28;20204;-64
2021/05/25 00:20:22;;;;;;;0.80;0.80;;;;;;;;;;5091571;28;20636;-64
2021/05/25 00:22:48;;;;;;;0.63;0.63;;;;;;;;;;5073725;28;20187;-64
2021/05/25 00:25:14;;;;;;;1.77;0.90;;;;;;;;;;5075999;28;20179;-65
2021/05/25 00:27:41;;;;;;;0.90;0.87;;;;;;;;;;5074984;28;20179;-63
2021/05/25 00:30:08;;;;;;;0.77;0.77;;;;;;;;;;5075492;28;20191;-64
2021/05/25 00:32:34;;;;;;;0.70;0.70;;;;;;;;;;5092783;28;20209;-64
2021/05/25 00:35:00;;;;;;;1.47;0.70;;;;;;;;;;5093297;28;20184;-64
2021/05/25 00:37:26;;;;;;;0.80;0.80;;;;;;;;;;5091975;28;20220;-64
2021/05/25 00:39:53;;;;;;;0.73;0.73;;;;;;;;;;5093471;28;20500;-63
2021/05/25 00:42:19;;;;;;;0.80;0.80;;;;;;;;;;5075014;28;20269;-64
2021/05/25 00:44:45;;;;;;;0.67;0.67;;;;;;;;;;5093974;28;20238;-64
2021/05/25 00:47:11;;;;;;;0.90;0.90;;;;;;;;;;5093372;28;20498;-63
2021/05/25 00:49:37;;;;;;;0.57;0.57;;;;;;;;;;5092992;28;20183;-65
2021/05/25 00:52:03;;;;;;;1.10;1.00;;;;;;;;;;5073778;28;20218;-64
2021/05/25 00:54:29;;;;;;;0.70;0.70;;;;;;;;;;5093683;28;20188;-64
2021/05/25 00:56:57;;;;;;;0.90;0.80;;;;;;;;;;5089352;28;20272;-64
2021/05/25 00:59:24;;;;;;;0.90;0.90;;;;;;;;;;5092903;28;20192;-63
2021/05/25 01:01:51;;;;;;;0.70;0.70;;;;;;;;;;5093157;28;20187;-64
2021/05/25 01:04:17;;;;;;;1.17;0.80;;;;;;;;;;5090846;28;20266;-64
2021/05/25 01:06:43;;;;;;;2.07;1.00;;;;;;;;;;5074077;28;20486;-64
2021/05/25 01:09:09;;;;;;;1.10;0.90;;;;;;;;;;5092227;28;20191;-64
2021/05/25 01:11:37;;;;;;;1.03;0.70;;;;;;;;;;5093595;28;20176;-66
2021/05/25 01:14:04;;;;;;;2.47;0.87;;;;;;;;;;5091478;28;20221;-63
2021/05/25 01:16:30;;;;;;;0.80;0.80;;;;;;;;;;5093387;28;20175;-64
2021/05/25 01:18:57;;;;;;;1.13;0.97;;;;;;;;;;5074206;28;20290;-63
2021/05/25 01:21:24;;;;;;;1.43;0.60;;;;;;;;;;5074940;28;20542;-64
2021/05/25 01:23:50;;;;;;;1.20;0.80;;;;;;;;;;5091374;28;20241;-64
2021/05/25 01:26:17;;;;;;;1.17;0.80;;;;;;;;;;5093244;28;20225;-63
2021/05/25 01:28:48;;;;;;;0.70;0.70;;;;;;;;;;5081856;28;20926;-64
2021/05/25 01:31:14;;;;;;;1.30;0.90;;;;;;;;;;5091978;28;20734;-64
2021/05/25 01:33:41;;;;;;;1.30;0.90;;;;;;;;;;5073672;28;20184;-65
2021/05/25 01:36:08;;;;;;;1.20;1.10;;;;;;;;;;5075069;28;20186;-64
2021/05/25 01:38:35;;;;;;;1.33;1.23;;;;;;;;;;5090794;28;20277;-63
2021/05/25 01:41:01;;;;;;;0.80;0.70;;;;;;;;;;5092292;28;20184;-63
2021/05/25 01:43:27;;;;;;;0.70;0.70;;;;;;;;;;5089679;28;20188;-63
2021/05/25 01:45:53;;;;;;;0.83;0.83;;;;;;;;;;5090261;28;20176;-63
2021/05/25 01:48:19;;;;;;;0.70;0.70;;;;;;;;;;5066021;28;20195;-63
2021/05/25 01:50:46;;;;;;;1.00;0.63;;;;;;;;;;5100179;28;20183;-64
2021/05/25 01:53:16;;;;;;;0.60;0.60;;;;;;;;;;5074241;28;20215;-63
2021/05/25 01:55:44;;;;;;;1.07;0.73;;;;;;;;;;5092303;28;20613;-63
2021/05/25 01:58:25;;;;;;;0.80;0.80;;;;;;;;;;5090538;28;20260;-62
2021/05/25 02:00:57;;;;;;;0.80;0.80;;;;;;;;;;5073639;28;20537;-65
2021/05/25 02:03:23;;;;;;;0.83;0.67;;;;;;;;;;5091590;28;20180;-63
2021/05/25 02:05:50;;;;;;;1.00;0.87;;;;;;;;;;5091592;28;20180;-63
2021/05/25 02:08:17;;;;;;;0.60;0.60;;;;;;;;;;5090077;28;20183;-65
2021/05/25 02:10:53;;;;;;;0.80;0.80;;;;;;;;;;5091989;28;20191;-64
2021/05/25 02:13:20;;;;;;;0.83;0.83;;;;;;;;;;5090997;28;20606;-64
2021/05/25 02:15:48;;;;;;;0.77;0.77;;;;;;;;;;5092129;28;20423;-63
2021/05/25 02:18:15;;;;;;;1.30;0.93;;;;;;;;;;5072845;28;20195;-63
2021/05/25 02:20:42;;;;;;;1.20;0.70;;;;;;;;;;5091890;28;20259;-63
2021/05/25 02:23:08;;;;;;;1.50;0.83;;;;;;;;;;5090245;28;20223;-62
2021/05/25 02:25:35;;;;;;;0.77;0.67;;;;;;;;;;5092002;28;20168;-63
2021/05/25 02:28:02;;;;;;;0.70;0.70;;;;;;;;;;5090231;28;20184;-63
2021/05/25 02:30:28;;;;;;;0.70;0.70;;;;;;;;;;5091759;28;20211;-64
2021/05/25 02:32:55;;;;;;;0.93;0.93;;;;;;;;;;5072870;28;20270;-63
2021/05/25 02:35:21;;;;;;;2.30;0.90;;;;;;;;;;5091845;28;20187;-64
2021/05/25 02:37:47;;;;;;;0.87;0.60;;;;;;;;;;5090104;28;20682;-64
2021/05/25 02:40:13;;;;;;;0.63;0.63;;;;;;;;;;5091590;28;20187;-64
2021/05/25 02:42:39;;;;;;;1.05;0.90;;;;;;;;;;5071244;28;20817;-64
2021/05/25 02:45:06;;;;;;;0.67;0.53;;;;;;;;;;5091277;28;20175;-64
2021/05/25 02:47:32;;;;;;;0.73;0.67;;;;;;;;;;5085595;28;20172;-66
2021/05/25 02:50:07;;;;;;;0.80;0.80;;;;;;;;;;5091358;28;20168;-64
2021/05/25 02:52:53;;;;;;;0.60;0.60;;;;;;;;;;5085348;28;20167;-64
2021/05/25 02:55:20;;;;;;;0.70;0.70;;;;;;;;;;5086094;28;20183;-64
2021/05/25 02:57:47;;;;;;;0.70;0.70;;;;;;;;;;5065644;28;20204;-65
2021/05/25 03:00:15;;;;;;;0.60;0.60;;;;;;;;;;5060497;28;20164;-64
2021/05/25 03:02:41;;;;;;;0.53;0.53;;;;;;;;;;5090960;28;20179;-64
2021/05/25 03:05:08;;;;;;;1.97;0.77;;;;;;;;;;5073224;28;20187;-64
2021/05/25 03:07:34;;;;;;;0.97;0.93;;;;;;;;;;5089105;28;20497;-64
2021/05/25 03:10:00;;;;;;;0.70;0.70;;;;;;;;;;5090934;28;20188;-65
2021/05/25 03:12:26;;;;;;;0.60;0.60;;;;;;;;;;5072781;28;20751;-66
2021/05/25 03:14:52;;;;;;;0.60;0.60;;;;;;;;;;5090862;28;20199;-65
2021/05/25 03:17:22;;;;;;;1.20;1.10;;;;;;;;;;5090305;28;20250;-65
2021/05/25 03:19:48;;;;;;;0.60;0.60;;;;;;;;;;5072529;28;20599;-66
2021/05/25 03:22:14;;;;;;;0.80;0.80;;;;;;;;;;5071306;28;20233;-63
2021/05/25 03:24:40;;;;;;;1.37;0.60;;;;;;;;;;5090871;28;20164;-64
2021/05/25 03:27:06;;;;;;;0.63;0.40;;;;;;;;;;5090596;28;20175;-63
2021/05/25 03:29:32;;;;;;;1.07;0.83;;;;;;;;;;5090503;28;20183;-64
2021/05/25 03:31:58;;;;;;;0.77;0.60;;;;;;;;;;5089031;28;20713;-66
2021/05/25 03:34:24;;;;;;;1.13;0.70;;;;;;;;;;5082541;28;20178;-65
2021/05/25 03:36:50;;;;;;;1.73;0.83;;;;;;;;;;5072757;28;20172;-63
2021/05/25 03:39:16;;;;;;;0.73;0.63;;;;;;;;;;5090228;28;20231;-63
2021/05/25 03:41:42;;;;;;;1.57;0.80;;;;;;;;;;5089816;28;20176;-63
2021/05/25 03:44:13;;;;;;;0.57;0.57;;;;;;;;;;5090094;28;20191;-63
2021/05/25 03:46:39;;;;;;;0.73;0.60;;;;;;;;;;5064813;28;20309;-63
2021/05/25 03:49:06;;;;;;;0.53;0.53;;;;;;;;;;5070875;28;20184;-65
2021/05/25 03:51:32;;;;;;;0.70;0.70;;;;;;;;;;5091051;28;20167;-65
2021/05/25 03:53:58;;;;;;;0.60;0.60;;;;;;;;;;5090155;28;20179;-63
2021/05/25 03:56:46;;;;;;;1.03;0.83;;;;;;;;;;5094685;28;20184;-63
2021/05/25 03:59:12;;;;;;;0.67;0.60;;;;;;;;;;5094207;28;20278;-63
2021/05/25 04:01:38;;;;;;;0.60;0.60;;;;;;;;;;5095000;28;20259;-63
2021/05/25 04:04:04;;;;;;;1.00;0.80;;;;;;;;;;5082949;28;20183;-63
2021/05/25 04:06:30;;;;;;;0.60;0.60;;;;;;;;;;5103515;28;20199;-63
2021/05/25 04:08:56;;;;;;;1.37;0.73;;;;;;;;;;5096742;28;20175;-65
2021/05/25 04:11:22;;;;;;;0.50;0.50;;;;;;;;;;5094722;28;20183;-64
2021/05/25 04:13:48;;;;;;;1.23;0.70;;;;;;;;;;5073953;28;20557;-63
2021/05/25 04:16:14;;;;;;;1.03;0.80;;;;;;;;;;5079301;28;20271;-63
2021/05/25 04:18:41;;;;;;;0.67;0.67;;;;;;;;;;5095571;28;20506;-63
2021/05/25 04:21:08;;;;;;;2.93;0.77;;;;;;;;;;5105414;28;20190;-63
2021/05/25 04:23:34;;;;;;;1.03;0.73;;;;;;;;;;5092684;28;20695;-63
2021/05/25 04:26:00;;;;;;;0.50;0.50;;;;;;;;;;5076172;28;20704;-63
2021/05/25 04:28:26;;;;;;;1.90;0.70;;;;;;;;;;5093433;28;20534;-63
2021/05/25 04:30:52;;;;;;;0.60;0.60;;;;;;;;;;5094237;28;20176;-63
2021/05/25 04:33:18;;;;;;;0.60;0.60;;;;;;;;;;5069457;28;20179;-63
2021/05/25 04:35:44;;;;;;;0.43;0.43;;;;;;;;;;5092055;28;20184;-63
2021/05/25 04:38:10;;;;;;;0.60;0.60;;;;;;;;;;5092481;28;20219;-63
2021/05/25 04:40:37;;;;;;;1.83;0.60;;;;;;;;;;5094153;28;20178;-65
2021/05/25 04:43:04;;;;;;;0.60;0.60;;;;;;;;;;5093517;28;20183;-63
2021/05/25 04:45:30;;;;;;;0.60;0.60;;;;;;;;;;5070206;28;20258;-63
2021/05/25 04:47:56;;;;;;;0.70;0.63;;;;;;;;;;5088763;28;20254;-63
2021/05/25 04:50:22;;;;;;;0.70;0.50;;;;;;;;;;5084935;28;20188;-66
2021/05/25 04:52:49;;;;;;;0.53;0.53;;;;;;;;;;5072342;28;20188;-64
2021/05/25 04:55:16;;;;;;;1.03;0.67;;;;;;;;;;5074758;28;20177;-63
2021/05/25 04:57:43;;;;;;;0.60;0.60;;;;;;;;;;5078419;28;20183;-64
2021/05/25 05:00:10;;;;;;;0.50;0.50;;;;;;;;;;5071892;28;20521;-63
2021/05/25 05:02:36;;;;;;;0.60;0.60;;;;;;;;;;5081470;28;20175;-63
2021/05/25 05:05:03;;;;;;;0.73;0.60;;;;;;;;;;5092728;28;20167;-66
2021/05/25 05:07:29;;;;;;;0.50;0.50;;;;;;;;;;5061119;28;20245;-64
2021/05/25 05:09:55;;;;;;;0.70;0.70;;;;;;;;;;5073805;28;20180;-64
2021/05/25 05:12:21;;;;;;;0.67;0.67;;;;;;;;;;5092828;28;20217;-63
2021/05/25 05:14:47;;;;;;;1.00;1.00;;;;;;;;;;5093321;28;20265;-63
2021/05/25 05:17:13;;;;;;;0.60;0.60;;;;;;;;;;5091915;28;20176;-63
2021/05/25 05:19:39;;;;;;;0.57;0.57;;;;;;;;;;5082704;28;20204;-63
2021/05/25 05:22:05;;;;;;;0.80;0.80;;;;;;;;;;5055962;28;20544;-63
2021/05/25 05:24:31;;;;;;;1.30;0.77;;;;;;;;;;5092889;28;20266;-63
2021/05/25 05:26:57;;;;;;;1.00;0.63;;;;;;;;;;5092612;28;20271;-66
2021/05/25 05:29:23;;;;;;;0.63;0.63;;;;;;;;;;5074627;28;20184;-63
2021/05/25 05:31:55;;;;;;;0.60;0.60;;;;;;;;;;5086267;28;20528;-64
2021/05/25 05:34:21;;;;;;;0.60;0.60;;;;;;;;;;5084352;28;20184;-63
2021/05/25 05:36:47;;;;;;;0.73;0.57;;;;;;;;;;5072799;28;20176;-63
2021/05/25 05:39:13;;;;;;;0.73;0.57;;;;;;;;;;5054886;28;20224;-63
2021/05/25 05:41:39;;;;;;;0.77;0.70;;;;;;;;;;5070783;28;20241;-63
2021/05/25 05:44:05;;;;;;;0.83;0.70;;;;;;;;;;5068708;28;20180;-63
2021/05/25 05:46:31;;;;;;;1.00;0.87;;;;;;;;;;5074034;28;20202;-64
2021/05/25 05:48:57;;;;;;;0.90;0.70;;;;;;;;;;5089990;28;20187;-63
2021/05/25 05:51:23;;;;;;;0.60;0.60;;;;;;;;;;5076422;28;20258;-63
2021/05/25 05:53:50;;;;;;;0.60;0.57;;;;;;;;;;5088130;28;20650;-64
2021/05/25 05:56:17;;;;;;;0.53;0.53;;;;;;;;;;5069825;28;20540;-64
2021/05/25 05:58:43;;;;;;;0.73;0.60;;;;;;;;;;5086408;28;20198;-63
2021/05/25 06:01:10;;;;;;;1.50;0.90;;;;;;;;;;5064007;28;20203;-63
2021/05/25 06:03:36;;;;;;;0.67;0.67;;;;;;;;;;5085820;28;20222;-63
2021/05/25 06:06:02;;;;;;;2.57;0.60;;;;;;;;;;5089850;28;20164;-63
2021/05/25 06:08:28;;;;;;;0.83;0.70;;;;;;;;;;5064249;28;20195;-63
2021/05/25 06:10:54;;;;;;;1.30;0.83;;;;;;;;;;5081373;28;20180;-64
2021/05/25 06:13:21;;;;;;;0.80;0.80;;;;;;;;;;5083519;28;20168;-63
2021/05/25 06:15:47;;;;;;;1.00;0.90;;;;;;;;;;5071410;28;20275;-62
2021/05/25 06:18:14;;;;;;;0.93;0.60;;;;;;;;;;5080513;28;20223;-64
2021/05/25 06:20:41;;;;;;;0.77;0.73;;;;;;;;;;5091726;28;20183;-63
2021/05/25 06:23:07;;;;;;;0.93;0.70;;;;;;;;;;5089444;28;20248;-63
2021/05/25 06:25:33;;;;;;;1.23;1.03;;;;;;;;;;5091534;28;20164;-63
2021/05/25 06:27:59;;;;;;;2.33;0.90;;;;;;;;;;5084954;28;20183;-64
2021/05/25 06:30:25;;;;;;;1.00;0.70;;;;;;;;;;5072136;28;20646;-64
2021/05/25 06:32:51;;;;;;;0.90;0.73;;;;;;;;;;5079322;28;20180;-63
2021/05/25 06:35:17;;;;;;;0.70;0.70;;;;;;;;;;5078945;28;20184;-63
2021/05/25 06:37:43;;;;;;;0.77;0.67;;;;;;;;;;5074817;28;20268;-63
2021/05/25 06:40:10;;;;;;;0.97;0.70;;;;;;;;;;5081384;28;20172;-64
2021/05/25 06:42:36;;;;;;;2.33;0.80;;;;;;;;;;5087207;28;20327;-63
2021/05/25 06:45:03;;;;;;;0.77;0.77;;;;;;;;;;5086779;28;20184;-62
2021/05/25 06:47:29;;;;;;;0.73;0.73;;;;;;;;;;5078119;28;20570;-63
2021/05/25 06:49:55;;;;;;;1.80;1.13;;;;;;;;;;5073287;28;20270;-62
2021/05/25 06:52:21;;;;;;;1.07;0.90;;;;;;;;;;5060996;28;20245;-63
2021/05/25 06:54:47;;;;;;;2.13;0.97;;;;;;;;;;5091895;28;20222;-62
2021/05/25 06:57:13;;;;;;;0.60;0.60;;;;;;;;;;5061708;28;20229;-63
2021/05/25 06:59:39;;;;;;;1.40;0.80;;;;;;;;;;5084676;28;20199;-63
2021/05/25 07:02:06;;;;;;;1.03;0.90;;;;;;;;;;5069233;28;20522;-62
2021/05/25 07:04:32;;;;;;;1.07;0.70;;;;;;;;;;5089723;28;20172;-62
2021/05/25 07:06:58;;;;;;;0.87;0.87;;;;;;;;;;5084174;28;20242;-62
2021/05/25 07:09:24;;;;;;;1.33;0.60;;;;;;;;;;5090626;28;20591;-62
2021/05/25 07:11:50;;;;;;;1.10;1.00;;;;;;;;;;5090277;28;20171;-62
2021/05/25 07:14:16;;;;;;;0.80;0.80;;;;;;;;;;5071687;28;20651;-62
2021/05/25 07:16:42;;;;;;;0.67;0.67;;;;;;;;;;5074622;28;20183;-62
2021/05/25 07:19:08;;;;;;;1.50;1.00;;;;;;;;;;5089582;28;20205;-63
2021/05/25 07:21:35;;;;;;;0.83;0.70;;;;;;;;;;5090981;28;20199;-65
2021/05/25 07:24:01;;;;;;;0.80;0.70;;;;;;;;;;5059135;28;20188;-62
2021/05/25 07:26:27;;;;;;;1.53;0.73;;;;;;;;;;5084093;28;20176;-63
2021/05/25 07:28:53;;;;;;;1.67;0.80;;;;;;;;;;5090439;28;20546;-62
2021/05/25 07:31:19;;;;;;;0.87;0.70;;;;;;;;;;5091108;28;20181;-63
2021/05/25 07:33:46;;;;;;;0.97;0.97;;;;;;;;;;5090522;28;20656;-63
2021/05/25 07:36:12;;;;;;;0.73;0.73;;;;;;;;;;5092636;28;20537;-63
2021/05/25 07:38:39;;;;;;;0.77;0.77;;;;;;;;;;5092082;28;20234;-63
2021/05/25 07:41:06;;;;;;;0.70;0.70;;;;;;;;;;5093309;28;20191;-63
2021/05/25 07:43:32;;;;;;;0.80;0.80;;;;;;;;;;5090643;28;20179;-63
2021/05/25 07:45:58;;;;;;;1.27;1.07;;;;;;;;;;5072739;28;20179;-63
2021/05/25 07:48:26;;;;;;;1.90;1.27;;;;;;;;;;5088283;28;20177;-63
2021/05/25 07:50:52;;;;;;;1.17;1.07;;;;;;;;;;5090057;28;20180;-62
2021/05/25 07:53:18;;;;;;;0.80;0.80;;;;;;;;;;5089129;28;20199;-63
2021/05/25 07:55:44;;;;;;;1.00;0.80;;;;;;;;;;5083378;28;20180;-63
2021/05/25 07:58:10;;;;;;;1.07;0.93;;;;;;;;;;5084668;28;20223;-65
2021/05/25 08:00:36;;;;;;;1.03;1.00;;;;;;;;;;5079549;28;20195;-63
2021/05/25 08:03:03;;;;;;;1.13;1.03;;;;;;;;;;5073966;28;20642;-63
2021/05/25 08:05:31;;;;;;;1.33;1.00;;;;;;;;;;5093471;28;20199;-65
2021/05/25 08:08:03;;;;;;;1.37;1.17;;;;;;;;;;5085981;28;20187;-64
2021/05/25 08:10:30;;;;;;;1.53;1.20;;;;;;;;;;5089649;28;20179;-64
2021/05/25 08:12:56;;;;;;;1.47;0.90;;;;;;;;;;5080579;28;20175;-65
2021/05/25 08:15:25;;;;;;;1.60;1.20;;;;;;;;;;5088460;28;20195;-62
2021/05/25 08:20:33;;;;;;;1.47;1.13;;;;;;;;;;5075596;28;20251;-62
2021/05/25 08:23:00;;;;;;;1.53;0.90;;;;;;;;;;5074591;28;20630;-64
2021/05/25 08:25:29;;;;;;;1.93;1.10;;;;;;;;;;5079485;28;20187;-66
2021/05/25 08:27:55;;;;;;;1.27;1.07;;;;;;;;;;5089394;28;20171;-64
2021/05/25 08:30:22;;;;;;;1.63;1.20;;;;;;;;;;5089346;28;20211;-64
2021/05/25 08:32:50;;;;;;;1.17;1.10;;;;;;;;;;5074762;28;20619;-64
2021/05/25 08:35:17;;;;;;;1.53;1.43;;;;;;;;;;5077726;28;20185;-65
2021/05/25 08:37:44;;;;;;;1.70;1.50;;;;;;;;;;5086654;28;20299;-63
2021/05/25 08:40:10;;;;;;;1.03;1.00;;;;;;;;;;5085475;28;20634;-65
2021/05/25 08:42:37;;;;;;;1.20;1.10;;;;;;;;;;5084023;28;20164;-66
2021/05/25 08:45:04;;;;;;;2.30;1.50;;;;;;;;;;5067332;28;20179;-64
2021/05/25 08:47:30;;;;;;;2.10;1.40;;;;;;;;;;5082056;28;20174;-64
2021/05/25 08:49:56;;;;;;;1.47;1.37;;;;;;;;;;5067805;28;20193;-65
2021/05/25 08:52:23;;;;;;;1.57;1.47;;;;;;;;;;5084697;28;20186;-63
2021/05/25 08:54:49;;;;;;;2.50;1.30;;;;;;;;;;5084997;28;20191;-64
2021/05/25 08:57:15;;;;;;;1.57;1.47;;;;;;;;;;5069154;28;20188;-64
2021/05/25 08:59:44;;;;;;;2.37;1.50;;;;;;;;;;5086023;28;20198;-64
2021/05/25 09:02:12;;;;;;;1.50;1.23;;;;;;;;;;5059488;28;20184;-64
2021/05/25 09:04:58;;;;;;;1.60;1.50;;;;;;;;;;5089279;28;20845;-63
2021/05/25 09:07:43;;;;;;;1.57;1.47;;;;;;;;;;5063699;28;20182;-64
2021/05/25 09:10:11;;;;;;;1.50;1.40;;;;;;;;;;5079838;28;20219;-64
2021/05/25 09:12:37;;;;;;;1.40;1.30;;;;;;;;;;5066243;28;20210;-65
2021/05/25 09:15:04;;;;;;;2.63;1.37;;;;;;;;;;5084532;28;20200;-65
2021/05/25 09:17:30;;;;;;;1.70;1.60;;;;;;;;;;5082212;28;20262;-66
2021/05/25 09:19:57;;;;;;;1.67;1.47;;;;;;;;;;5082320;28;20239;-63
2021/05/25 09:22:37;;;;;;;2.17;1.60;;;;;;;;;;5089014;28;20190;-64
2021/05/25 09:25:06;;;;;;;2.00;1.40;;;;;;;;;;5090556;28;20274;-64
2021/05/25 09:27:38;;;;;;;2.30;1.73;;;;;;;;;;5065116;28;20638;-64
2021/05/25 09:30:12;;;;;;;2.13;1.60;;;;;;;;;;5065308;28;20180;-64
2021/05/25 09:32:47;;;;;;;1.87;1.43;;;;;;;;;;5072710;28;20187;-64
2021/05/25 09:35:14;;;;;;;1.90;1.50;;;;;;;;;;5077159;28;20569;-64
2021/05/25 09:37:42;;;;;;;2.73;1.80;;;;;;;;;;5056330;28;20245;-63
2021/05/25 09:40:09;;;;;;;2.80;2.00;;;;;;;;;;5072632;28;20188;-63
2021/05/25 09:42:35;;;;;;;1.83;1.70;;;;;;;;;;5076830;28;20183;-63
2021/05/25 09:45:03;;;;;;;1.77;1.60;;;;;;;;;;5079235;28;20176;-64
2021/05/25 09:47:42;;;;;;;2.07;1.53;;;;;;;;;;5077268;28;20191;-64
2021/05/25 09:50:12;;;;;;;3.73;2.40;;;;;;;;;;5071996;28;20230;-63
2021/05/25 09:52:57;;;;;;;2.43;2.23;;;;;;;;;;5075396;28;20180;-63
2021/05/25 09:55:23;;;;;;;2.30;2.10;;;;;;;;;;5086806;28;20237;-63
2021/05/25 09:57:50;;;;;;;2.83;2.47;;;;;;;;;;5072238;28;20188;-63
2021/05/25 10:00:23;;;;;;;6.93;1.93;;;;;;;;;;5067035;28;20177;-63
2021/05/25 10:03:13;;;;;;;2.03;1.87;;;;;;;;;;5071011;28;20195;-63
2021/05/25 10:05:39;;;;;;;2.93;1.83;;;;;;;;;;5089533;28;20175;-63
2021/05/25 10:08:06;;;;;;;3.07;2.20;;;;;;;;;;5090152;28;20172;-63
2021/05/25 10:10:33;;;;;;;2.17;1.80;;;;;;;;;;5091343;28;20533;-64
2021/05/25 10:12:59;;;;;;;2.67;1.93;;;;;;;;;;5089501;28;20642;-64
2021/05/25 10:15:27;;;;;;;2.47;2.10;;;;;;;;;;5084827;28;20265;-63
2021/05/25 10:20:26;;;;;;;2.93;1.90;;;;;;;;;;5091335;28;20163;-63
2021/05/25 10:22:52;;;;;;;3.10;2.40;;;;;;;;;;5070011;28;20187;-63
2021/05/25 10:25:19;;;;;;;3.97;2.73;;;;;;;;;;5089180;28;20176;-64
2021/05/25 10:27:46;;;;;;;2.87;2.37;;;;;;;;;;5084387;28;20168;-64
2021/05/25 10:30:22;;;;;;;3.23;2.50;;;;;;;;;;5066022;28;20179;-63
2021/05/25 10:32:48;;;;;;;4.00;2.60;;;;;;;;;;5083459;28;20183;-63
2021/05/25 10:35:18;;;;;;;3.43;2.27;;;;;;;;;;5072498;28;20175;-63
2021/05/25 10:38:02;;;;;;;6.50;2.80;;;;;;;;;;5086272;28;20271;-63
2021/05/25 10:40:36;;;;;;;3.83;2.60;;;;;;;;;;5063112;28;20188;-64
2021/05/25 10:43:21;;;;;;;4.00;2.43;;;;;;;;;;5089456;28;20175;-63
2021/05/25 10:45:47;;;;;;;3.50;2.47;;;;;;;;;;5062180;28;20636;-63
2021/05/25 10:48:14;;;;;;;3.73;2.73;;;;;;;;;;5079539;28;20204;-62
2021/05/25 10:50:48;;;;;;;2.87;2.10;;;;;;;;;;5070059;28;20212;-62
2021/05/25 10:53:27;;;;;;;3.27;2.70;;;;;;;;;;5075634;28;20209;-62
2021/05/25 10:55:55;;;;;;;3.53;2.37;;;;;;;;;;5066875;28;20177;-63
2021/05/25 10:58:28;;;;;;;3.47;2.83;;;;;;;;;;5080757;28;20252;-62
2021/05/25 11:00:54;;;;;;;3.07;2.40;;;;;;;;;;5083286;28;20233;-62
2021/05/25 11:03:21;;;;;;;4.30;2.70;;;;;;;;;;5084355;28;20542;-63
2021/05/25 11:05:52;;;;;;;3.03;2.43;;;;;;;;;;5067455;28;20172;-62
2021/05/25 11:08:18;;;;;;;4.43;2.23;;;;;;;;;;5064675;28;20172;-62
2021/05/25 11:11:10;;;;;;;2.47;2.00;;;;;;;;;;5066078;28;20188;-63
2021/05/25 11:13:38;;;;;;;3.63;2.07;;;;;;;;;;5061970;28;20180;-64
2021/05/25 11:18:39;;;;;;;1.97;1.77;;;;;;;;;;5082066;28;20245;-64
2021/05/25 11:23:41;;;;;;;2.97;1.87;;;;;;;;;;5079982;28;20515;-64
2021/05/25 11:26:07;;;;;;;2.47;1.90;;;;;;;;;;5060685;28;20304;-63
2021/05/25 11:29:09;;;;;;;2.83;2.50;;;;;;;;;;5087908;28;20625;-64
2021/05/25 11:31:38;;;;;;;2.17;1.70;;;;;;;;;;5026504;28;20188;-65
2021/05/25 11:34:05;;;;;;;4.37;2.27;;;;;;;;;;5069160;28;20195;-64
2021/05/25 11:36:31;;;;;;;2.10;1.87;;;;;;;;;;5067722;28;20171;-63
2021/05/25 11:38:57;;;;;;;4.17;2.33;;;;;;;;;;5084669;28;20225;-64
2021/05/25 11:41:23;;;;;;;2.33;2.10;;;;;;;;;;5070616;28;20175;-63
2021/05/25 11:43:50;;;;;;;2.13;1.90;;;;;;;;;;5079569;28;20234;-65
2021/05/25 11:46:16;;;;;;;4.80;2.57;;;;;;;;;;5089540;28;20660;-63
2021/05/25 11:48:42;;;;;;;3.20;2.90;;;;;;;;;;5078898;28;20643;-65
2021/05/25 11:51:09;;;;;;;6.17;3.07;;;;;;;;;;5089669;28;20236;-63
2021/05/25 11:53:35;;;;;;;4.40;2.53;;;;;;;;;;5084017;28;20174;-65
2021/05/25 11:56:01;;;;;;;3.10;2.73;;;;;;;;;;5066469;28;20519;-63
2021/05/25 11:58:27;;;;;;;3.43;2.20;;;;;;;;;;5082276;28;20211;-64
2021/05/25 12:00:54;;;;;;;2.57;2.17;;;;;;;;;;5078456;28;20195;-65
2021/05/25 12:03:20;;;;;;;3.37;2.50;;;;;;;;;;5067650;28;20204;-65
2021/05/25 12:05:46;;;;;;;2.80;2.53;;;;;;;;;;5068943;28;20172;-64
2021/05/25 12:08:12;;;;;;;4.03;3.50;;;;;;;;;;5084735;28;20186;-64
2021/05/25 12:10:42;;;;;;;6.93;4.00;;;;;;;;;;5089752;28;20534;-64
2021/05/25 12:13:09;;;;;;;4.33;3.13;;;;;;;;;;5085011;28;20199;-63
2021/05/25 12:15:55;;;;;;;4.30;3.23;;;;;;;;;;5073411;28;20222;-64
2021/05/25 12:18:24;;;;;;;5.23;3.20;;;;;;;;;;5068288;28;20195;-65
2021/05/25 12:20:51;;;;;;;3.27;3.03;;;;;;;;;;5056663;28;20742;-66
2021/05/25 12:23:19;;;;;;;6.27;4.53;;;;;;;;;;5062702;28;20233;-65
2021/05/25 12:25:50;;;;;;;4.17;3.23;;;;;;;;;;5063668;28;20215;-66
2021/05/25 12:28:19;;;;;;;4.03;3.63;;;;;;;;;;5085416;28;20175;-65
2021/05/25 12:30:45;;;;;;;4.93;3.23;;;;;;;;;;5063777;28;20239;-65
2021/05/25 12:33:18;;;;;;;4.40;2.80;;;;;;;;;;5077583;28;20188;-65
2021/05/25 12:35:45;;;;;;;3.57;2.77;;;;;;;;;;5081410;28;20737;-64
2021/05/25 12:38:13;;;;;;;3.53;2.33;;;;;;;;;;5074570;28;20575;-64
2021/05/25 12:40:40;;;;;;;4.83;2.73;;;;;;;;;;5081415;28;20185;-64
2021/05/25 12:43:16;;;;;;;3.40;2.03;;;;;;;;;;5087002;28;20593;-65
2021/05/25 12:45:44;;;;;;;2.33;2.13;;;;;;;;;;5063222;28;20183;-63
2021/05/25 12:48:11;;;;;;;2.67;2.03;;;;;;;;;;5087733;28;20183;-66
2021/05/25 12:50:38;;;;;;;2.50;2.30;;;;;;;;;;5085674;28;20626;-64
2021/05/25 12:53:09;;;;;;;2.60;2.20;;;;;;;;;;5092290;28;20183;-64
2021/05/25 12:55:38;;;;;;;2.43;2.20;;;;;;;;;;5087435;28;20534;-64
2021/05/25 12:58:05;;;;;;;2.57;2.20;;;;;;;;;;5082255;28;20187;-64
2021/05/25 13:00:36;;;;;;;3.03;2.30;;;;;;;;;;5073776;28;20180;-64
2021/05/25 13:03:04;;;;;;;5.40;2.10;;;;;;;;;;5059765;28;20223;-64
2021/05/25 13:05:34;;;;;;;6.13;2.30;;;;;;;;;;5072659;28;20172;-64
2021/05/25 13:08:07;;;;;;;2.80;1.73;;;;;;;;;;5089073;28;20180;-64
2021/05/25 13:13:19;;;;;;;2.83;1.93;;;;;;;;;;5084112;28;20232;-64
2021/05/25 13:15:48;;;;;;;2.07;1.70;;;;;;;;;;5092803;28;20653;-64
2021/05/25 13:18:15;;;;;;;2.73;2.00;;;;;;;;;;5083610;28;20183;-62
2021/05/25 13:20:44;;;;;;;2.77;1.70;;;;;;;;;;5054157;28;20281;-64
2021/05/25 13:23:23;;;;;;;2.40;2.20;;;;;;;;;;5069550;28;20184;-63
2021/05/25 13:26:13;;;;;;;3.73;1.97;;;;;;;;;;5091061;28;20175;-63
2021/05/25 13:28:48;;;;;;;2.80;1.77;;;;;;;;;;5076110;28;20165;-64
2021/05/25 13:31:15;;;;;;;4.63;3.23;;;;;;;;;;5054243;28;20267;-64
2021/05/25 13:33:41;;;;;;;4.30;2.87;;;;;;;;;;5072845;28;20194;-62
2021/05/25 13:36:07;;;;;;;3.73;2.73;;;;;;;;;;5073304;28;20183;-64
2021/05/25 13:38:33;;;;;;;6.30;2.50;;;;;;;;;;5069967;28;20228;-65
2021/05/25 13:40:59;;;;;;;3.23;2.23;;;;;;;;;;5072681;28;20634;-63
2021/05/25 13:43:25;;;;;;;3.50;2.40;;;;;;;;;;5080080;28;20188;-64
2021/05/25 13:45:51;;;;;;;2.87;2.43;;;;;;;;;;5072641;28;20177;-63
2021/05/25 13:48:17;;;;;;;5.43;2.73;;;;;;;;;;5088994;28;20202;-67
2021/05/25 13:50:43;;;;;;;3.33;1.97;;;;;;;;;;5084639;28;20188;-66
2021/05/25 13:53:09;;;;;;;2.93;2.27;;;;;;;;;;5071901;28;20183;-64
2021/05/25 13:55:36;;;;;;;6.77;3.67;;;;;;;;;;5092232;28;20178;-64
2021/05/25 13:58:04;;;;;;;7.90;3.80;;;;;;;;;;5090215;28;20167;-64
2021/05/25 14:00:43;;;;;;;5.53;3.87;;;;;;;;;;5085897;28;20657;-63
2021/05/25 14:03:09;;;;;;;5.63;3.87;;;;;;;;;;5064180;28;20161;-63
2021/05/25 14:05:35;;;;;;;3.93;2.90;;;;;;;;;;5087233;28;20171;-62
2021/05/25 14:08:01;;;;;;;2.90;2.30;;;;;;;;;;5090190;28;20568;-62
2021/05/25 14:10:31;;;;;;;5.97;2.77;;;;;;;;;;5092396;28;20172;-64
2021/05/25 14:12:57;;;;;;;3.73;2.20;;;;;;;;;;5090627;28;20168;-64
2021/05/25 14:15:23;;;;;;;1.70;1.60;;;;;;;;;;5069701;28;20204;-65
2021/05/25 14:17:49;;;;;;;2.07;1.70;;;;;;;;;;5066260;28;20619;-64
2021/05/25 14:20:16;;;;;;;2.50;1.80;;;;;;;;;;5091014;28;20191;-64
2021/05/25 14:22:42;;;;;;;2.80;1.90;;;;;;;;;;5088413;28;20187;-64
2021/05/25 14:25:08;;;;;;;2.13;1.63;;;;;;;;;;5077144;28;20203;-64
2021/05/25 14:27:34;;;;;;;3.87;2.10;;;;;;;;;;5058749;28;20236;-62
2021/05/25 14:30:00;;;;;;;1.60;1.20;;;;;;;;;;5081313;28;20180;-64
2021/05/25 14:32:27;;;;;;;2.57;1.43;;;;;;;;;;5075036;28;20183;-64
2021/05/25 14:34:53;;;;;;;1.43;1.33;;;;;;;;;;5064703;28;20281;-65
2021/05/25 14:37:19;;;;;;;2.47;1.20;;;;;;;;;;5062196;28;20220;-62
2021/05/25 14:39:46;;;;;;;1.83;1.47;;;;;;;;;;5083041;28;20196;-64
2021/05/25 14:42:12;;;;;;;2.03;1.30;;;;;;;;;;5073047;28;20226;-63
2021/05/25 14:44:38;;;;;;;2.33;1.40;;;;;;;;;;5072673;28;20183;-63
2021/05/25 14:47:04;;;;;;;1.30;1.20;;;;;;;;;;5090919;28;20198;-65
2021/05/25 14:49:30;;;;;;;4.43;1.20;;;;;;;;;;5089905;28;20180;-63
2021/05/25 14:51:56;;;;;;;1.53;1.07;;;;;;;;;;5071085;28;20180;-62
2021/05/25 14:54:23;;;;;;;1.47;1.10;;;;;;;;;;5087280;28;20218;-65
2021/05/25 14:56:55;;;;;;;2.37;1.20;;;;;;;;;;5087861;28;20179;-66
2021/05/25 14:59:21;;;;;;;4.80;1.47;;;;;;;;;;5069597;28;20195;-64